Time;durP1;ratioP1;P1;durP2;ratioP2;P2;SDS_P1;SDS_P2;PMS_P1;PMS_P2;Temp;Humidity;BMP_temperature;BMP_pressure;BME280_temperature;BME280_humidity;BME280_pressure;Samples;Min_cycle;Max_cycle;Signal;HPM_P1;HPM_P2
2022/06/12 00:00:46;;;;;;;12.67;4.70;;;20.10;58.80;;;22.70;45.10;102136.97;5071664;28;20216;-63
2022/06/12 00:03:17;;;;;;;11.93;3.90;;;20.00;58.70;;;22.67;45.14;102140.09;5071642;28;20193;-62
2022/06/12 00:05:53;;;;;;;7.20;3.90;;;20.00;59.10;;;22.63;45.31;102136.19;5085380;28;20198;-62
2022/06/12 00:08:22;;;;;;;9.97;3.77;;;20.00;59.10;;;22.62;45.36;102139.94;5112081;28;20275;-63
2022/06/12 00:10:55;;;;;;;10.13;3.63;;;20.00;59.10;;;22.58;45.07;102133.31;5111757;28;20592;-63
2022/06/12 00:13:28;;;;;;;11.67;4.27;;;19.90;59.10;;;22.56;45.17;102139.97;5112519;28;20213;-62
2022/06/12 00:15:57;;;;;;;9.57;4.07;;;19.90;59.00;;;22.53;45.08;102130.50;5112644;28;20468;-63
2022/06/12 00:18:25;;;;;;;8.97;3.73;;;19.90;59.00;;;22.51;45.05;102129.84;5112162;28;20194;-62
2022/06/12 00:21:13;;;;;;;7.33;4.00;;;19.80;58.80;;;22.48;45.37;102130.31;5111493;28;20286;-62
2022/06/12 00:23:46;;;;;;;10.43;3.90;;;19.80;59.00;;;22.43;45.70;102129.31;5108651;28;20196;-62
2022/06/12 00:26:21;;;;;;;9.57;3.60;;;19.80;59.20;;;22.43;45.69;102130.16;5111831;28;20649;-63
2022/06/12 00:28:55;;;;;;;10.33;4.43;;;19.80;59.50;;;22.42;45.30;102128.50;5112300;28;20219;-63
2022/06/12 00:31:31;;;;;;;10.57;4.63;;;19.80;59.30;;;22.43;45.20;102127.47;5110436;28;20224;-61
2022/06/12 00:34:01;;;;;;;9.80;5.20;;;19.80;59.10;;;22.40;45.14;102119.84;5111732;28;20645;-62
2022/06/12 00:36:29;;;;;;;12.77;5.03;;;19.80;59.00;;;22.34;45.76;102115.38;5112002;28;20603;-63
2022/06/12 00:38:58;;;;;;;9.43;4.27;;;19.80;59.00;;;22.30;45.82;102113.34;5108814;28;20196;-60
2022/06/12 00:41:27;;;;;;;9.93;4.10;;;19.80;59.10;;;22.25;46.07;102114.78;5094730;28;20200;-61
2022/06/12 00:43:55;;;;;;;7.33;4.37;;;19.70;59.60;;;22.25;46.00;102122.84;5094798;28;20195;-63
2022/06/12 00:46:46;;;;;;;10.27;5.07;;;19.70;59.60;;;22.20;46.29;102117.28;5095363;28;20204;-63
2022/06/12 00:49:19;;;;;;;7.60;4.70;;;19.70;60.00;;;22.22;46.31;102120.59;5095022;28;20193;-63
2022/06/12 00:51:51;;;;;;;10.57;4.73;;;19.70;60.00;;;22.21;46.47;102116.28;5094667;28;20213;-61
2022/06/12 00:54:21;;;;;;;8.87;4.57;;;19.60;60.00;;;22.17;46.63;102106.19;5095219;28;20188;-63
2022/06/12 00:56:57;;;;;;;12.73;4.70;;;19.60;60.20;;;22.13;46.52;102113.84;5105116;28;20190;-62
2022/06/12 00:59:36;;;;;;;11.00;5.00;;;19.60;60.40;;;22.09;46.73;102112.63;5115375;28;20242;-62
2022/06/12 01:02:08;;;;;;;10.53;6.80;;;19.60;60.60;;;22.10;46.59;102113.47;5114666;28;20227;-60
2022/06/12 01:07:28;;;;;;;11.33;5.10;;;19.50;60.70;;;22.05;46.65;102107.94;5115274;28;20194;-61
2022/06/12 01:10:01;;;;;;;10.33;4.43;;;19.50;60.80;;;22.00;46.68;102113.13;5115417;28;20321;-63
2022/06/12 01:12:37;;;;;;;8.17;4.50;;;19.50;60.60;;;21.95;47.30;102108.41;5108601;28;20207;-63
2022/06/12 01:15:15;;;;;;;9.90;3.87;;;19.40;61.00;;;21.92;47.15;102113.34;5109422;28;20513;-63
2022/06/12 01:17:45;;;;;;;14.10;5.10;;;19.40;60.90;;;21.90;47.18;102112.75;5093938;28;20193;-63
2022/06/12 01:20:19;;;;;;;13.10;4.87;;;19.40;61.20;;;21.80;47.33;102107.03;5092202;28;20233;-63
2022/06/12 01:23:50;;;;;;;10.67;5.33;;;19.30;61.20;;;21.51;47.83;102113.75;5093614;28;20207;-63
2022/06/12 01:26:48;;;;;;;11.93;5.57;;;19.20;61.10;;;21.42;48.04;102110.47;5094080;28;20196;-63
2022/06/12 01:29:27;;;;;;;11.40;4.97;;;19.10;61.50;;;21.41;47.76;102102.66;5095802;28;20662;-63
2022/06/12 01:32:05;;;;;;;10.67;5.20;;;19.00;61.70;;;21.43;48.16;102109.47;5093627;28;20230;-62
2022/06/12 01:34:44;;;;;;;8.87;4.27;;;19.00;61.80;;;21.45;48.09;102104.72;5094406;28;20185;-63
2022/06/12 01:38:00;;;;;;;9.87;5.13;;;18.90;61.80;;;21.36;48.18;102105.16;5076965;28;20212;-62
2022/06/12 01:40:38;;;;;;;10.23;5.30;;;18.90;61.90;;;21.35;48.29;102104.31;5093947;28;20184;-63
2022/06/12 01:43:18;;;;;;;9.47;4.67;;;18.90;62.90;;;21.39;47.98;102102.06;5093986;28;20195;-62
2022/06/12 01:45:58;;;;;;;9.23;4.93;;;18.90;62.60;;;21.40;48.41;102104.50;5093704;28;20192;-62
2022/06/12 01:48:41;;;;;;;11.10;4.83;;;18.90;62.50;;;21.39;47.96;102110.09;5094924;28;20279;-63
2022/06/12 01:51:19;;;;;;;8.50;4.43;;;18.90;62.60;;;21.38;48.16;102113.78;5093079;28;20700;-62
2022/06/12 01:53:59;;;;;;;9.80;4.40;;;18.90;62.60;;;21.36;48.45;102105.16;5094124;28;20595;-63
2022/06/12 01:56:38;;;;;;;11.07;4.23;;;18.80;62.70;;;21.34;47.89;102108.06;5094042;28;20658;-62
2022/06/12 01:59:15;;;;;;;10.43;4.30;;;18.80;62.60;;;21.33;48.20;102106.41;5093909;28;20202;-61
2022/06/12 02:01:55;;;;;;;9.67;4.30;;;18.80;62.40;;;21.27;48.30;102107.25;5093365;28;20207;-62
2022/06/12 02:04:32;;;;;;;13.30;4.17;;;18.80;62.50;;;21.25;47.86;102103.16;5104681;28;20542;-63
2022/06/12 02:07:12;;;;;;;11.57;4.07;;;18.70;62.50;;;21.23;48.63;102106.00;5114075;28;20188;-63
2022/06/12 02:09:50;;;;;;;6.77;3.13;;;18.70;63.00;;;21.23;48.09;102103.34;5113713;28;20198;-63
2022/06/12 02:15:16;;;;;;;13.10;4.50;;;18.70;63.00;;;21.21;48.42;102102.72;5114016;28;20192;-62
2022/06/12 02:17:51;;;;;;;6.93;3.70;;;18.70;62.80;;;21.18;48.53;102100.47;5112663;28;20267;-62
2022/06/12 02:20:25;;;;;;;12.17;4.27;;;18.70;63.30;;;21.18;48.21;102103.13;5110078;28;20284;-62
2022/06/12 02:22:57;;;;;;;10.03;4.10;;;18.60;63.20;;;21.21;48.72;102102.72;5092787;28;20271;-62
2022/06/12 02:25:36;;;;;;;9.20;4.07;;;18.60;63.30;;;21.22;48.71;102099.03;5108491;28;20212;-63
2022/06/12 02:28:13;;;;;;;12.33;4.00;;;18.60;63.30;;;21.22;48.71;102104.38;5093108;28;20194;-62
2022/06/12 02:30:48;;;;;;;8.70;4.70;;;18.60;63.40;;;21.24;48.67;102107.66;5092893;28;20239;-62
2022/06/12 02:33:44;;;;;;;8.47;3.83;;;18.60;63.30;;;21.20;48.34;102090.38;5092564;28;20248;-63
2022/06/12 02:36:19;;;;;;;10.43;4.10;;;18.60;62.80;;;21.22;48.05;102099.03;5093090;28;20525;-62
2022/06/12 02:38:56;;;;;;;10.70;4.50;;;18.60;63.00;;;21.20;48.35;102095.75;5107165;28;20274;-62
2022/06/12 02:41:27;;;;;;;12.07;4.07;;;18.60;63.00;;;21.16;48.01;102094.50;5111876;28;20244;-62
2022/06/12 02:44:04;;;;;;;13.77;5.00;;;18.60;62.80;;;21.13;48.42;102091.44;5113301;28;20188;-63
2022/06/12 02:46:38;;;;;;;12.90;4.60;;;18.60;62.80;;;21.06;48.38;102087.97;5112993;28;20191;-63
2022/06/12 02:49:09;;;;;;;11.00;4.00;;;18.50;62.90;;;21.00;48.25;102086.91;5113684;28;20707;-62
2022/06/12 02:51:44;;;;;;;12.13;4.67;;;18.50;62.90;;;20.97;48.59;102089.97;5112619;28;20752;-63
2022/06/12 02:54:23;;;;;;;10.60;4.23;;;18.40;63.00;;;20.86;49.03;102083.44;5111599;28;20229;-62
2022/06/12 02:57:08;;;;;;;10.13;4.37;;;18.40;63.20;;;20.76;48.94;102085.72;5072779;28;20212;-62
2022/06/12 02:59:55;;;;;;;9.73;4.20;;;18.30;63.30;;;20.68;49.28;102077.09;5072486;28;20205;-61
2022/06/12 03:02:32;;;;;;;11.50;3.90;;;18.30;63.60;;;20.63;49.67;102077.72;5071299;28;20288;-60
2022/06/12 03:05:17;;;;;;;9.93;4.13;;;18.20;63.90;;;20.54;49.39;102084.28;5072505;28;20685;-62
2022/06/12 03:07:44;;;;;;;11.33;4.13;;;18.10;64.20;;;20.50;49.40;102083.06;5072725;28;20197;-62
2022/06/12 03:10:19;;;;;;;12.10;4.23;;;18.00;63.90;;;20.44;49.81;102077.72;5072358;28;20194;-62
2022/06/12 03:12:50;;;;;;;7.47;3.90;;;18.00;64.60;;;20.40;50.26;102082.63;5089348;28;20254;-62
2022/06/12 03:15:47;;;;;;;8.80;3.67;;;17.90;64.70;;;20.27;50.29;102079.16;5092859;28;20185;-61
2022/06/12 03:18:24;;;;;;;12.00;4.30;;;17.80;64.70;;;20.27;50.09;102079.16;5057807;28;20270;-62
2022/06/12 03:21:07;;;;;;;6.50;3.37;;;17.80;64.90;;;20.21;50.47;102084.25;5092064;28;20273;-62
2022/06/12 03:24:05;;;;;;;11.37;4.10;;;17.70;65.00;;;20.13;50.32;102079.09;5092122;28;20646;-62
2022/06/12 03:26:44;;;;;;;10.67;3.50;;;17.70;65.00;;;20.09;50.16;102080.53;5094139;28;20658;-62
2022/06/12 03:29:28;;;;;;;6.67;3.70;;;17.60;65.00;;;20.04;50.29;102083.00;5101174;28;20192;-60
2022/06/12 03:32:09;;;;;;;11.53;4.17;;;17.60;65.00;;;20.05;50.67;102090.00;5112140;28;20243;-63
2022/06/12 03:34:46;;;;;;;12.37;4.30;;;17.60;65.50;;;20.06;50.54;102083.59;5112855;28;20239;-63
2022/06/12 03:37:26;;;;;;;11.13;3.50;;;17.50;65.30;;;20.04;50.36;102088.34;5112228;28;20270;-63
2022/06/12 03:40:07;;;;;;;10.47;4.10;;;17.50;65.20;;;20.04;49.93;102093.69;5112470;28;20267;-62
2022/06/12 03:42:47;;;;;;;7.73;4.23;;;17.50;65.20;;;20.05;50.35;102087.34;5111958;28;20291;-61
2022/06/12 03:45:22;;;;;;;9.23;3.60;;;17.50;65.40;;;20.06;50.45;102085.47;5110531;28;20613;-62
2022/06/12 03:48:00;;;;;;;13.57;4.20;;;17.60;65.40;;;20.06;50.48;102083.59;5091850;28;20199;-62
2022/06/12 03:50:39;;;;;;;9.60;4.00;;;17.50;65.70;;;20.05;50.53;102084.66;5091396;28;20207;-63
2022/06/12 03:53:18;;;;;;;9.73;3.87;;;17.50;66.00;;;20.01;51.10;102093.28;5091817;28;20223;-60
2022/06/12 03:59:00;;;;;;;8.93;3.57;;;17.50;65.90;;;19.98;51.00;102083.81;5091770;28;20734;-63
2022/06/12 04:01:31;;;;;;;11.40;4.33;;;17.50;65.90;;;19.99;50.74;102085.44;5091381;28;20291;-62
2022/06/12 04:04:01;;;;;;;8.30;3.37;;;17.50;66.10;;;20.00;50.92;102089.78;5092955;28;20192;-63
2022/06/12 04:06:31;;;;;;;12.47;3.40;;;17.50;66.40;;;20.00;51.22;102096.97;5091814;28;20647;-62
2022/06/12 04:09:09;;;;;;;8.97;3.73;;;17.50;66.60;;;19.95;51.14;102089.56;5107268;28;20268;-64
2022/06/12 04:11:40;;;;;;;9.60;3.50;;;17.50;66.60;;;19.96;51.50;102091.22;5091701;28;20223;-63
2022/06/12 04:14:15;;;;;;;12.83;4.03;;;17.50;66.70;;;19.92;51.29;102091.84;5093214;28;20212;-63
2022/06/12 04:16:49;;;;;;;13.37;4.27;;;17.50;66.80;;;19.90;51.20;102089.34;5096282;28;20184;-61
2022/06/12 04:19:22;;;;;;;10.00;4.23;;;17.40;66.70;;;19.87;51.83;102081.72;5096437;28;20179;-62
2022/06/12 04:22:03;;;;;;;10.10;3.77;;;17.40;66.90;;;19.83;51.38;102075.16;5115340;28;20254;-62
2022/06/12 04:24:42;;;;;;;9.37;4.30;;;17.40;66.80;;;19.80;51.88;102080.88;5116216;28;20607;-62
2022/06/12 04:27:20;;;;;;;10.00;4.43;;;17.40;67.00;;;19.77;51.68;102081.31;5116089;28;20184;-60
2022/06/12 04:29:56;;;;;;;8.80;3.50;;;17.30;66.70;;;19.78;51.45;102082.94;5115771;28;20263;-63
2022/06/12 04:32:28;;;;;;;12.63;4.30;;;17.30;66.80;;;19.83;51.58;102087.69;5115054;28;20230;-63
2022/06/12 04:34:56;;;;;;;10.00;3.57;;;17.30;66.90;;;19.85;51.56;102078.44;5115778;28;20239;-62
2022/06/12 04:37:28;;;;;;;8.70;3.83;;;17.40;67.00;;;19.88;51.41;102077.22;5106708;28;20275;-62
2022/06/12 04:39:59;;;;;;;7.80;3.87;;;17.40;67.20;;;19.85;51.75;102073.09;5095337;28;20646;-63
2022/06/12 04:42:31;;;;;;;10.70;4.00;;;17.40;67.20;;;19.83;51.46;102075.16;5094679;28;20208;-63
2022/06/12 04:45:00;;;;;;;12.10;4.70;;;17.40;67.10;;;19.82;51.82;102070.84;5095469;28;20188;-63
2022/06/12 04:47:31;;;;;;;11.83;4.17;;;17.40;67.00;;;19.81;52.16;102071.84;5095359;28;20189;-63
2022/06/12 04:49:58;;;;;;;10.00;4.20;;;17.40;67.30;;;19.83;52.00;102074.31;5095125;28;20292;-63
2022/06/12 04:52:27;;;;;;;7.90;4.07;;;17.40;67.10;;;19.86;51.75;102069.41;5095024;28;20224;-62
2022/06/12 04:54:56;;;;;;;13.03;4.47;;;17.40;67.00;;;19.84;51.55;102068.78;5107698;28;20222;-63
2022/06/12 04:57:25;;;;;;;11.53;4.30;;;17.40;66.70;;;19.82;51.74;102062.00;5115739;27;20181;-63
2022/06/12 04:59:52;;;;;;;10.60;4.37;;;17.40;67.00;;;19.88;51.55;102067.34;5115311;28;20608;-63
2022/06/12 05:02:20;;;;;;;9.20;4.03;;;17.40;66.80;;;19.89;51.35;102069.00;5115250;28;20208;-63
2022/06/12 05:04:48;;;;;;;8.77;3.97;;;17.40;66.40;;;19.96;51.30;102061.81;5115464;27;20183;-62
2022/06/12 05:07:16;;;;;;;12.00;4.20;;;17.50;66.60;;;20.00;51.48;102062.22;5115513;28;20192;-62
2022/06/12 05:09:44;;;;;;;12.43;4.17;;;17.50;66.60;;;20.03;51.19;102062.66;5114100;28;20406;-63
2022/06/12 05:12:14;;;;;;;11.70;4.43;;;17.50;66.70;;;20.08;51.08;102057.53;5098292;28;20568;-63
2022/06/12 05:14:42;;;;;;;9.77;4.17;;;17.60;66.60;;;20.15;50.96;102060.19;5095063;28;20195;-63
2022/06/12 05:17:22;;;;;;;12.50;4.30;;;17.60;66.20;;;20.20;50.99;102055.88;5094885;28;20185;-63
2022/06/12 05:19:50;;;;;;;9.40;3.53;;;17.60;66.20;;;20.28;50.39;102062.09;5095198;28;20192;-62
2022/06/12 05:22:21;;;;;;;11.30;4.33;;;17.70;66.10;;;20.31;50.94;102056.31;5094499;28;20577;-63
2022/06/12 05:24:49;;;;;;;11.13;4.20;;;17.70;66.00;;;20.35;50.70;102062.91;5094563;28;20201;-63
2022/06/12 05:27:22;;;;;;;9.40;3.77;;;17.80;65.90;;;20.43;50.01;102062.69;5094481;28;20561;-62
2022/06/12 05:29:51;;;;;;;12.97;4.27;;;17.90;65.80;;;20.53;49.99;102063.09;5113314;28;20194;-62
2022/06/12 05:32:22;;;;;;;9.27;3.90;;;17.90;65.80;;;20.57;49.79;102058.97;5114629;28;20214;-63
2022/06/12 05:34:49;;;;;;;8.73;3.70;;;17.90;65.40;;;20.61;49.71;102060.22;5116492;28;20195;-62
2022/06/12 05:37:17;;;;;;;8.60;3.83;;;18.00;65.40;;;20.66;49.97;102065.75;5116095;28;20196;-62
2022/06/12 05:39:45;;;;;;;6.73;3.60;;;18.10;65.30;;;20.75;49.50;102072.53;5116090;28;20222;-61
2022/06/12 05:42:13;;;;;;;13.47;4.23;;;18.10;65.30;;;20.78;49.59;102064.91;5115592;28;20214;-63
2022/06/12 05:44:42;;;;;;;11.10;3.93;;;18.20;65.00;;;20.76;49.59;102056.28;5115530;28;20194;-60
2022/06/12 05:47:10;;;;;;;14.33;4.53;;;18.20;64.70;;;20.84;49.18;102055.22;5116178;28;20196;-62
2022/06/12 05:49:38;;;;;;;15.63;3.80;;;18.30;64.40;;;20.91;49.22;102062.22;5116348;28;20195;-62
2022/06/12 05:52:06;;;;;;;9.60;3.50;;;18.40;64.30;;;21.03;49.34;102057.03;5115920;28;20228;-62
2022/06/12 05:54:34;;;;;;;10.27;3.80;;;18.40;64.30;;;21.14;49.10;102059.06;5116502;28;20278;-62
2022/06/12 05:57:01;;;;;;;7.07;3.20;;;18.50;65.10;;;21.26;48.58;102065.41;5116302;28;20188;-62
2022/06/12 05:59:29;;;;;;;11.27;3.53;;;18.60;64.30;;;21.33;48.62;102066.22;5116669;28;20198;-62
2022/06/12 06:01:59;;;;;;;9.20;3.63;;;18.70;64.30;;;21.42;48.31;102062.25;5115165;28;20669;-62
2022/06/12 06:04:26;;;;;;;7.83;3.63;;;18.70;63.90;;;21.48;48.44;102064.09;5115662;28;20194;-62
2022/06/12 06:07:00;;;;;;;10.73;3.70;;;18.80;63.30;;;21.54;47.70;102065.91;5115653;28;20672;-63
2022/06/12 06:09:47;;;;;;;10.07;4.03;;;18.90;63.30;;;21.58;48.13;102067.13;5115519;28;20202;-63
2022/06/12 06:12:15;;;;;;;9.23;3.27;;;19.00;63.00;;;21.65;47.64;102064.41;5115176;28;20276;-62
2022/06/12 06:14:42;;;;;;;8.87;4.00;;;19.10;63.10;;;21.81;47.51;102063.91;5115235;28;20212;-63
2022/06/12 06:17:11;;;;;;;8.10;3.17;;;19.10;63.00;;;21.95;47.52;102065.50;5115393;28;20190;-63
2022/06/12 06:19:38;;;;;;;13.23;3.50;;;19.20;63.10;;;22.06;47.31;102064.00;5115512;28;20199;-63
2022/06/12 06:22:05;;;;;;;8.87;2.60;;;19.30;63.00;;;22.20;46.90;102065.53;5113746;28;20208;-62
2022/06/12 06:24:33;;;;;;;11.23;4.30;;;19.40;62.70;;;22.30;46.96;102065.84;5115762;28;20187;-62
2022/06/12 06:27:02;;;;;;;6.67;3.10;;;19.50;62.20;;;22.34;46.76;102064.38;5115739;28;20199;-62
2022/06/12 06:29:29;;;;;;;7.37;3.13;;;19.60;61.90;;;22.45;46.50;102071.69;5116843;28;20188;-60
2022/06/12 06:31:57;;;;;;;9.27;3.77;;;19.70;61.60;;;22.43;46.20;102064.91;5114542;28;20218;-62
2022/06/12 06:34:29;;;;;;;10.00;3.83;;;19.80;60.70;;;22.43;46.22;102065.75;5114731;27;20228;-62
2022/06/12 06:36:57;;;;;;;12.20;3.73;;;19.80;60.40;;;22.50;46.05;102061.13;5107592;28;20271;-62
2022/06/12 06:39:25;;;;;;;10.20;3.70;;;19.90;60.50;;;22.51;46.41;102061.97;5094637;28;20548;-62
2022/06/12 06:41:52;;;;;;;8.97;3.30;;;20.00;60.50;;;22.56;46.05;102060.22;5094508;28;20208;-62
2022/06/12 06:47:07;;;;;;;11.30;3.77;;;20.10;59.90;;;22.77;45.27;102057.16;5094247;28;20217;-61
2022/06/12 06:49:36;;;;;;;8.87;3.73;;;20.20;59.60;;;22.88;45.12;102061.81;5094525;28;20193;-62
2022/06/12 06:52:05;;;;;;;10.13;3.50;;;20.30;59.70;;;22.95;44.83;102060.91;5094096;28;20209;-61
2022/06/12 06:54:37;;;;;;;12.33;3.97;;;20.40;59.30;;;22.95;44.90;102063.59;5094407;28;20320;-60
2022/06/12 06:57:07;;;;;;;7.23;3.70;;;20.40;59.00;;;23.04;44.70;102064.94;5099315;28;20184;-61
2022/06/12 06:59:35;;;;;;;14.33;3.50;;;20.50;58.90;;;23.01;43.78;102062.72;5120437;28;20187;-63
2022/06/12 07:02:03;;;;;;;8.20;3.40;;;20.50;58.00;;;23.02;44.56;102056.28;5113892;28;20235;-63
2022/06/12 07:04:32;;;;;;;6.37;2.60;;;20.60;58.40;;;23.20;44.62;102051.72;5114509;28;20196;-63
2022/06/12 07:07:01;;;;;;;8.27;3.37;;;20.60;58.70;;;23.32;43.81;102044.53;5114174;28;20194;-62
2022/06/12 07:09:28;;;;;;;11.00;3.30;;;20.70;57.90;;;23.42;43.39;102049.41;5112744;28;20654;-63
2022/06/12 07:11:58;;;;;;;7.57;3.07;;;20.80;57.20;;;23.46;43.41;102051.41;5093550;28;20231;-63
2022/06/12 07:14:27;;;;;;;8.33;3.27;;;20.90;57.30;;;23.46;43.42;102054.09;5093627;28;20650;-63
2022/06/12 07:16:56;;;;;;;8.33;3.10;;;21.00;57.20;;;23.61;42.91;102055.56;5093799;28;20537;-63
2022/06/12 07:19:24;;;;;;;9.97;3.50;;;21.10;57.10;;;23.71;42.85;102043.22;5092701;28;20200;-63
2022/06/12 07:21:52;;;;;;;10.23;3.50;;;21.10;56.90;;;23.71;42.54;102048.59;5093247;28;20223;-63
2022/06/12 07:24:29;;;;;;;9.73;3.30;;;21.20;56.30;;;23.79;42.02;102042.91;5093771;28;20191;-64
2022/06/12 07:27:22;;;;;;;6.63;3.10;;;21.30;55.80;;;23.81;41.30;102048.03;5102147;28;20203;-61
2022/06/12 07:29:50;;;;;;;11.60;3.60;;;21.30;54.30;;;23.90;41.04;102058.25;5113547;28;20632;-64
2022/06/12 07:32:17;;;;;;;8.77;3.77;;;21.40;54.30;;;24.03;40.74;102059.91;5113419;28;20215;-63
2022/06/12 07:34:45;;;;;;;7.63;2.47;;;21.50;53.70;;;24.20;41.01;102053.63;5113468;28;20215;-61
2022/06/12 07:37:12;;;;;;;3.93;2.40;;;21.60;54.00;;;24.40;39.85;102047.09;5113516;28;20196;-61
2022/06/12 07:39:41;;;;;;;6.30;2.70;;;21.70;52.50;;;24.55;38.87;102056.38;5113945;28;20226;-59
2022/06/12 07:42:09;;;;;;;11.50;3.20;;;21.80;51.80;;;24.67;38.63;102049.09;5113108;28;20208;-61
2022/06/12 07:44:37;;;;;;;6.50;2.03;;;21.90;51.30;;;24.78;38.57;102042.91;5099242;28;20630;-61
2022/06/12 07:47:05;;;;;;;6.07;3.07;;;22.00;51.60;;;24.93;38.09;102044.28;5093387;28;20726;-61
2022/06/12 07:49:34;;;;;;;7.43;3.10;;;22.10;51.30;;;24.96;36.98;102044.63;5092847;28;20188;-61
2022/06/12 07:52:08;;;;;;;3.90;2.20;;;22.20;49.70;;;25.06;37.01;102047.53;5092603;28;20311;-61
2022/06/12 07:54:36;;;;;;;6.87;2.53;;;22.30;50.30;;;25.22;37.30;102041.38;5092908;28;20206;-63
2022/06/12 07:57:07;;;;;;;7.03;2.43;;;22.40;50.10;;;25.35;36.34;102043.81;5092734;28;20626;-61
2022/06/12 07:59:35;;;;;;;8.00;2.80;;;22.50;49.30;;;25.49;36.45;102049.78;5092649;28;20192;-61
2022/06/12 08:02:04;;;;;;;6.30;2.43;;;22.60;49.10;;;25.59;35.89;102046.44;5094011;28;20235;-60
2022/06/12 08:04:32;;;;;;;7.43;2.67;;;22.70;48.90;;;25.71;35.60;102042.63;5098758;28;20267;-61
2022/06/12 08:07:00;;;;;;;6.70;2.43;;;22.80;48.30;;;25.84;36.06;102041.53;5113209;28;20262;-60
2022/06/12 08:09:27;;;;;;;7.50;3.00;;;22.90;48.60;;;25.99;35.39;102044.47;5113227;28;20192;-62
2022/06/12 08:11:55;;;;;;;3.73;2.27;;;23.00;47.80;;;26.01;35.14;102036.94;5113070;28;20254;-63
2022/06/12 08:14:24;;;;;;;8.40;2.83;;;23.10;47.90;;;26.19;35.26;102040.25;5113234;28;20240;-63
2022/06/12 08:16:53;;;;;;;5.87;2.60;;;23.30;47.40;;;26.69;34.24;102042.06;5111604;28;20354;-63
2022/06/12 08:22:09;;;;;;;4.47;2.23;;;23.60;45.90;;;27.84;32.20;102045.34;5113062;28;20290;-62
2022/06/12 08:24:37;;;;;;;6.27;2.43;;;24.00;45.40;;;28.69;31.04;102041.69;5112123;28;20222;-62
2022/06/12 08:27:06;;;;;;;7.93;2.23;;;24.40;44.60;;;29.61;29.97;102049.09;5112753;28;20689;-63
2022/06/12 08:29:35;;;;;;;4.10;2.20;;;24.90;44.30;;;30.74;28.05;102045.78;5113100;28;20620;-63
2022/06/12 08:32:10;;;;;;;7.37;2.67;;;25.40;41.90;;;31.93;26.45;102052.78;5112643;28;20211;-63
2022/06/12 08:34:42;;;;;;;7.70;2.63;;;26.10;40.10;;;32.74;24.21;102043.84;5112237;28;20306;-63
2022/06/12 08:37:15;;;;;;;2.87;2.07;;;26.80;37.10;;;33.29;23.92;102040.44;5112732;28;20190;-64
2022/06/12 08:39:43;;;;;;;8.63;5.03;;;27.60;36.30;;;34.24;22.93;102044.69;5112759;28;20611;-61
2022/06/12 08:42:20;;;;;;;5.40;2.07;;;28.20;34.70;;;34.96;21.78;102040.28;5112234;28;20210;-63
2022/06/12 08:44:54;;;;;;;3.33;2.03;;;28.90;33.30;;;35.40;20.46;102037.66;5112765;28;20653;-63
2022/06/12 08:47:34;;;;;;;3.07;1.43;;;29.40;30.10;;;36.17;20.85;102041.00;5112871;28;20634;-62
2022/06/12 08:50:12;;;;;;;4.57;2.00;;;30.10;31.10;;;37.16;19.09;102038.47;5112293;28;20509;-63
2022/06/12 08:52:47;;;;;;;3.60;1.90;;;30.60;29.40;;;38.10;18.65;102034.88;5111189;28;20634;-62
2022/06/12 08:55:26;;;;;;;4.23;2.00;;;31.20;28.60;;;38.77;17.89;102036.91;5112751;28;20298;-61
2022/06/12 08:58:01;;;;;;;4.60;2.30;;;31.80;28.00;;;39.24;17.39;102030.13;5113159;28;20176;-61
2022/06/12 09:00:35;;;;;;;6.55;2.38;;;32.30;27.40;;;39.45;16.41;102019.88;5113199;28;20274;-63
2022/06/12 09:03:04;;;;;;;4.30;2.35;;;32.70;25.90;;;39.59;17.01;102025.94;5116538;27;20178;-62
2022/06/12 09:05:44;;;;;;;5.07;1.90;;;33.10;26.30;;;39.88;16.67;102017.53;5116557;28;20199;-61
2022/06/12 09:08:24;;;;;;;3.97;2.10;;;33.40;25.30;;;40.15;16.33;102012.53;5114798;28;20289;-63
2022/06/12 09:11:02;;;;;;;5.50;2.42;;;33.70;25.70;;;40.26;15.75;102013.69;5095725;28;20216;-63
2022/06/12 09:13:50;;;;;;;6.40;2.60;;;33.90;24.70;;;40.07;15.33;102007.91;5095814;28;20192;-62
2022/06/12 09:16:32;;;;;;;4.68;2.30;;;33.90;23.80;;;39.71;15.67;102011.38;5096023;28;20208;-62
2022/06/12 09:19:14;;;;;;;4.18;2.58;;;34.00;23.80;;;39.74;16.77;102017.03;5096131;28;20573;-62
2022/06/12 09:21:57;;;;;;;6.10;2.67;;;34.10;24.80;;;40.04;15.92;102009.41;5095982;28;20236;-62
2022/06/12 09:24:41;;;;;;;10.40;2.58;;;34.10;23.90;;;40.49;15.98;102003.81;5096002;28;20564;-62
2022/06/12 09:27:21;;;;;;;5.13;2.20;;;34.20;23.60;;;40.50;15.24;101999.91;5097642;28;20192;-62
2022/06/12 09:30:01;;;;;;;4.90;2.50;;;34.20;23.00;;;40.44;15.12;102002.09;5095716;28;20227;-62
2022/06/12 09:32:47;;;;;;;4.00;2.10;;;34.40;23.40;;;40.78;16.16;102002.75;5095428;28;20299;-62
2022/06/12 09:35:34;;;;;;;4.50;2.67;;;34.50;23.50;;;41.24;14.51;101996.66;5095289;28;20207;-62
2022/06/12 09:38:22;;;;;;;3.38;1.92;;;34.50;22.60;;;40.60;15.10;101988.41;5095215;28;20647;-62
2022/06/12 09:41:12;;;;;;;5.57;2.63;;;34.60;23.10;;;40.67;15.82;101994.13;5095031;28;20209;-63
2022/06/12 09:44:08;;;;;;;2.95;2.17;;;34.70;23.40;;;40.71;15.85;101992.28;5096888;28;20246;-61
2022/06/12 09:46:48;;;;;;;4.68;2.60;;;34.70;23.30;;;40.64;15.76;102000.34;5095550;28;20235;-61
2022/06/12 09:49:36;;;;;;;4.28;2.10;;;34.70;23.30;;;40.19;15.79;101994.13;5093752;28;20214;-60
2022/06/12 09:52:33;;;;;;;4.43;2.17;;;34.50;23.10;;;39.75;15.89;101985.50;5094947;28;20223;-62
2022/06/12 09:55:07;;;;;;;4.80;2.30;;;34.40;23.50;;;39.28;16.44;101983.38;5094745;28;20224;-62
2022/06/12 09:57:42;;;;;;;4.55;2.58;;;34.10;23.70;;;39.11;16.72;101981.53;5095072;28;20185;-62
2022/06/12 10:00:17;;;;;;;4.82;2.30;;;33.90;24.10;;;38.95;17.04;101977.78;5104831;28;20291;-62
2022/06/12 10:03:07;;;;;;;4.57;2.47;;;33.70;24.30;;;38.61;16.64;101981.53;5115426;28;20198;-62
2022/06/12 10:05:43;;;;;;;3.92;2.40;;;33.50;24.00;;;37.55;17.49;101973.50;5115376;27;20653;-62
2022/06/12 10:08:18;;;;;;;4.18;2.72;;;33.10;24.20;;;37.23;17.83;101972.84;5115385;28;20178;-62
2022/06/12 10:10:53;;;;;;;3.63;2.15;;;32.90;24.80;;;37.30;17.90;101973.16;5114675;28;20204;-62
2022/06/12 10:13:28;;;;;;;5.30;2.28;;;32.70;25.40;;;37.66;18.27;101974.75;5114611;28;20209;-62
2022/06/12 10:16:05;;;;;;;5.97;2.38;;;32.60;25.70;;;37.95;17.68;101972.13;5113573;28;20669;-62
2022/06/12 10:18:40;;;;;;;5.45;2.47;;;32.60;25.80;;;38.57;17.58;101962.13;5094847;28;20185;-62
2022/06/12 10:21:15;;;;;;;5.30;2.67;;;32.70;25.80;;;38.84;17.19;101960.03;5094242;28;20291;-62
2022/06/12 10:23:42;;;;;;;3.95;2.47;;;32.90;25.60;;;39.15;17.07;101949.41;5094661;28;20327;-61
2022/06/12 10:26:19;;;;;;;6.25;2.75;;;33.10;25.80;;;39.69;16.60;101964.81;5094265;28;20205;-62
2022/06/12 10:28:59;;;;;;;5.53;2.47;;;33.20;25.90;;;39.48;16.91;101953.00;5094376;28;20220;-61
2022/06/12 10:31:26;;;;;;;4.82;2.30;;;33.40;25.10;;;39.55;16.58;101947.75;5094128;28;20212;-60
2022/06/12 10:34:14;;;;;;;5.50;2.60;;;33.50;25.60;;;40.14;15.82;101948.22;5101914;28;20260;-61
2022/06/12 10:36:44;;;;;;;4.40;2.40;;;33.70;24.90;;;39.83;16.16;101954.25;5114479;28;20268;-61
2022/06/12 10:39:19;;;;;;;5.65;2.47;;;33.80;25.00;;;38.95;16.98;101948.28;5115255;28;20202;-61
2022/06/12 10:41:52;;;;;;;7.13;3.25;;;33.70;24.50;;;38.04;17.57;101948.13;5114432;28;20286;-63
2022/06/12 10:44:34;;;;;;;4.38;2.33;;;33.50;24.80;;;37.56;18.07;101945.66;5114931;28;20185;-62
2022/06/12 10:47:17;;;;;;;4.57;2.60;;;33.20;25.30;;;36.76;18.49;101946.28;5114967;28;20605;-62
2022/06/12 10:49:45;;;;;;;6.40;2.28;;;33.00;25.40;;;35.73;19.65;101940.38;5114133;28;20176;-63
2022/06/12 10:52:20;;;;;;;7.10;2.53;;;32.70;25.20;;;35.02;20.54;101937.72;5114448;28;20661;-62
2022/06/12 10:54:51;;;;;;;5.55;2.80;;;32.30;26.00;;;34.52;20.84;101932.22;5114281;28;20314;-64